Time;durP1;ratioP1;P1;durP2;ratioP2;P2;SDS_P1;SDS_P2;PMS_P1;PMS_P2;Temp;Humidity;BMP_temperature;BMP_pressure;BME280_temperature;BME280_humidity;BME280_pressure;Samples;Min_cycle;Max_cycle;Signal;HPM_P1;HPM_P2
2021/03/24 00:01:22;;;;;;;21.77;13.77;;;2.30;96.30;;;;;;4956668;29;20454;-78
2021/03/24 00:03:48;;;;;;;19.33;13.97;;;2.40;96.30;;;;;;4955930;28;20171;-78
2021/03/24 00:06:14;;;;;;;19.27;13.70;;;2.40;96.30;;;;;;4956496;29;20768;-78
2021/03/24 00:08:40;;;;;;;19.00;13.40;;;2.40;96.30;;;;;;4956141;29;20172;-78
2021/03/24 00:11:07;;;;;;;18.30;14.00;;;2.40;96.30;;;;;;4955820;29;20267;-78
2021/03/24 00:13:32;;;;;;;19.30;14.70;;;2.50;96.30;;;;;;4956741;29;20215;-79
2021/03/24 00:15:59;;;;;;;18.73;13.60;;;2.50;96.30;;;;;;4956167;28;20427;-79
2021/03/24 00:18:25;;;;;;;18.90;13.90;;;2.50;96.30;;;;;;4955858;29;20637;-78
2021/03/24 00:20:51;;;;;;;19.57;14.60;;;2.40;96.30;;;;;;4956810;29;20461;-78
2021/03/24 00:23:17;;;;;;;16.40;12.97;;;2.40;96.30;;;;;;4955792;29;20194;-78
2021/03/24 00:25:42;;;;;;;17.50;14.17;;;2.40;96.30;;;;;;4956362;28;20427;-78
2021/03/24 00:28:12;;;;;;;27.13;15.83;;;2.40;96.30;;;;;;4955758;29;20182;-78
2021/03/24 00:30:41;;;;;;;19.90;12.63;;;2.40;96.30;;;;;;4956420;29;20167;-78
2021/03/24 00:33:08;;;;;;;22.33;14.43;;;2.50;96.30;;;;;;4938991;29;20426;-78
2021/03/24 00:35:34;;;;;;;18.90;12.73;;;2.50;96.30;;;;;;4956340;28;20485;-79
2021/03/24 00:37:59;;;;;;;24.67;14.57;;;2.50;96.30;;;;;;4955692;29;20419;-78
2021/03/24 00:40:31;;;;;;;20.97;15.30;;;2.50;96.30;;;;;;4956243;29;20213;-78
2021/03/24 00:42:57;;;;;;;21.03;15.50;;;2.50;96.30;;;;;;4955960;29;20415;-78
2021/03/24 00:45:23;;;;;;;19.23;13.87;;;2.50;96.30;;;;;;4956178;28;20453;-78
2021/03/24 00:47:49;;;;;;;18.53;13.70;;;2.60;96.30;;;;;;4955527;29;20175;-78
2021/03/24 00:50:18;;;;;;;20.80;13.40;;;2.60;96.30;;;;;;4955975;29;20198;-78
2021/03/24 00:52:44;;;;;;;22.00;14.33;;;2.60;96.30;;;;;;4955997;29;20431;-78
2021/03/24 00:55:11;;;;;;;21.77;13.87;;;2.60;96.30;;;;;;4938576;29;20439;-78
2021/03/24 00:57:37;;;;;;;24.27;13.27;;;2.60;96.30;;;;;;4955264;29;20555;-78
2021/03/24 05:00:49;;;;;;;32.63;18.37;;;2.90;96.30;;;;;;5851441;23;20547;-78
2021/03/24 05:03:18;;;;;;;28.13;19.20;;;2.90;96.30;;;;;;4956595;28;20440;-78
2021/03/24 05:05:48;;;;;;;29.70;18.93;;;2.90;96.30;;;;;;4956842;29;20462;-78
2021/03/24 05:08:34;;;;;;;26.03;17.73;;;2.90;96.30;;;;;;4956246;29;20399;-78
2021/03/24 05:11:07;;;;;;;26.00;19.00;;;2.90;96.30;;;;;;4956092;28;20521;-78
2021/03/24 05:13:46;;;;;;;27.63;17.60;;;3.00;96.30;;;;;;4956555;29;20402;-78
2021/03/24 05:16:32;;;;;;;30.53;19.83;;;3.00;96.30;;;;;;4956336;29;20900;-77
2021/03/24 05:18:58;;;;;;;31.20;18.77;;;2.90;96.30;;;;;;4954555;29;20419;-77
2021/03/24 05:21:51;;;;;;;27.10;20.40;;;2.90;96.30;;;;;;4954726;28;21000;-75
2021/03/24 05:24:23;;;;;;;32.87;18.70;;;2.90;96.30;;;;;;4954990;29;20452;-76
2021/03/24 05:26:59;;;;;;;32.37;19.07;;;3.00;96.30;;;;;;4954762;28;20878;-76
2021/03/24 05:29:32;;;;;;;26.00;17.70;;;2.90;96.30;;;;;;4967614;28;20425;-76
2021/03/24 05:31:58;;;;;;;26.90;18.90;;;2.90;96.30;;;;;;4966064;28;20430;-77
2021/03/24 05:34:31;;;;;;;33.20;18.83;;;3.00;96.30;;;;;;4956869;28;20544;-78
2021/03/24 05:36:58;;;;;;;26.73;17.73;;;3.00;96.30;;;;;;4973638;28;20420;-77
2021/03/24 05:39:30;;;;;;;36.40;19.17;;;3.00;96.30;;;;;;4974189;28;20924;-76
2021/03/24 05:42:19;;;;;;;38.43;20.47;;;3.00;96.30;;;;;;4973105;28;21138;-76
2021/03/24 05:44:47;;;;;;;30.03;18.73;;;3.10;96.30;;;;;;4974037;28;20489;-76
2021/03/24 05:47:28;;;;;;;26.73;19.30;;;3.10;96.30;;;;;;4973487;28;20444;-76
2021/03/24 05:50:21;;;;;;;30.30;19.40;;;3.10;96.30;;;;;;4967983;28;20398;-76
2021/03/24 05:52:53;;;;;;;27.73;18.10;;;3.20;96.30;;;;;;4957327;28;20898;-79
2021/03/24 05:55:54;;;;;;;29.17;18.77;;;3.20;96.30;;;;;;4955968;28;20409;-77
2021/03/24 05:58:55;;;;;;;31.87;19.20;;;3.20;96.30;;;;;;4972211;28;20414;-77
2021/03/24 06:01:45;;;;;;;31.13;19.70;;;3.30;96.30;;;;;;4986431;28;20472;-77
2021/03/24 06:04:34;;;;;;;31.53;19.63;;;3.40;96.30;;;;;;4979369;28;20410;-77
2021/03/24 06:07:28;;;;;;;28.93;17.47;;;3.40;96.30;;;;;;4974460;28;20402;-78
2021/03/24 06:10:08;;;;;;;31.00;20.03;;;3.50;96.30;;;;;;4973956;28;20876;-79
2021/03/24 06:13:11;;;;;;;33.90;19.00;;;3.40;96.30;;;;;;4956365;28;20424;-78
2021/03/24 06:15:51;;;;;;;28.20;17.23;;;3.50;96.30;;;;;;4973548;28;20425;-78
2021/03/24 06:18:17;;;;;;;25.50;17.17;;;3.40;96.30;;;;;;4972920;28;20420;-78
2021/03/24 06:21:01;;;;;;;28.13;18.20;;;3.40;96.30;;;;;;4973604;28;20552;-78
2021/03/24 06:23:32;;;;;;;37.23;18.50;;;3.40;96.30;;;;;;4952953;28;20171;-78
2021/03/24 06:26:39;;;;;;;28.40;17.83;;;3.40;96.30;;;;;;4967348;28;20406;-79
2021/03/24 06:29:49;;;;;;;26.30;18.60;;;3.50;96.30;;;;;;4939289;28;20426;-78
2021/03/24 06:32:43;;;;;;;26.53;18.37;;;3.60;96.30;;;;;;4968868;28;20453;-78
2021/03/24 06:35:46;;;;;;;32.93;19.77;;;3.60;96.30;;;;;;4963866;28;20978;-78
2021/03/24 06:38:25;;;;;;;25.03;16.80;;;3.70;96.30;;;;;;4953266;28;20914;-78
2021/03/24 06:41:03;;;;;;;25.80;18.57;;;3.90;96.30;;;;;;4954009;28;20557;-79
2021/03/24 06:44:03;;;;;;;26.57;18.53;;;3.90;96.30;;;;;;4958759;28;20424;-79
2021/03/24 06:46:43;;;;;;;26.13;17.97;;;4.00;96.30;;;;;;4954572;28;20429;-78
2021/03/24 06:49:14;;;;;;;26.93;19.67;;;4.10;96.30;;;;;;4972927;28;20414;-79
2021/03/24 06:52:04;;;;;;;41.30;23.47;;;4.20;96.30;;;;;;4973498;28;20446;-77
2021/03/24 06:54:53;;;;;;;25.60;19.03;;;4.30;96.30;;;;;;4977377;28;20421;-78
2021/03/24 06:57:41;;;;;;;35.50;19.53;;;4.30;96.30;;;;;;4976588;28;20410;-78
2021/03/24 07:00:25;;;;;;;27.97;19.93;;;4.50;96.30;;;;;;4977443;28;20464;-77
2021/03/24 07:03:12;;;;;;;31.87;20.30;;;4.60;96.30;;;;;;4957673;29;20962;-77
2021/03/24 07:05:59;;;;;;;29.23;19.20;;;4.70;96.30;;;;;;4991451;28;20500;-78
2021/03/24 07:08:33;;;;;;;29.23;19.20;;;4.80;96.30;;;;;;4996708;28;20412;-78
2021/03/24 07:11:23;;;;;;;30.10;19.30;;;4.90;96.30;;;;;;4993081;28;20437;-77
2021/03/24 07:14:07;;;;;;;26.80;19.17;;;4.90;96.30;;;;;;4977399;28;20417;-78
2021/03/24 07:16:49;;;;;;;34.43;18.97;;;5.00;96.30;;;;;;4958912;28;20496;-77
2021/03/24 07:19:27;;;;;;;30.97;18.00;;;5.20;96.30;;;;;;4976443;28;20412;-78
2021/03/24 07:22:29;;;;;;;28.93;19.63;;;5.40;96.30;;;;;;4976591;28;20492;-77
2021/03/24 07:25:32;;;;;;;48.37;20.47;;;5.40;96.30;;;;;;4975433;28;20472;-78
2021/03/24 07:28:23;;;;;;;30.50;20.73;;;5.60;96.30;;;;;;4975803;28;20459;-77
2021/03/24 07:31:12;;;;;;;30.73;19.90;;;5.70;96.30;;;;;;4976308;28;20436;-77
2021/03/24 07:33:56;;;;;;;29.87;20.43;;;6.00;96.30;;;;;;4975027;28;20409;-78
2021/03/24 07:37:02;;;;;;;27.40;19.77;;;6.30;96.30;;;;;;4973230;28;20417;-77
2021/03/24 07:40:05;;;;;;;32.17;20.70;;;6.80;96.30;;;;;;4976264;28;20452;-77
2021/03/24 07:42:58;;;;;;;30.40;19.57;;;7.20;96.30;;;;;;4976054;28;20437;-77
2021/03/24 07:46:01;;;;;;;26.80;18.50;;;7.00;96.30;;;;;;4975985;28;20413;-77
2021/03/24 07:48:32;;;;;;;29.30;20.90;;;7.60;96.30;;;;;;4975448;28;20409;-77
2021/03/24 07:51:14;;;;;;;29.57;19.20;;;8.60;96.30;;;;;;4975653;28;20427;-77
2021/03/24 07:54:08;;;;;;;30.20;19.80;;;8.70;96.30;;;;;;4975874;28;20414;-77
2021/03/24 07:56:43;;;;;;;33.37;20.53;;;8.40;96.30;;;;;;4975862;28;20584;-78
2021/03/24 07:59:34;;;;;;;26.40;19.43;;;8.70;96.30;;;;;;4975522;28;20397;-77
2021/03/24 08:02:31;;;;;;;31.10;22.93;;;8.70;96.30;;;;;;4975635;28;20460;-77
2021/03/24 08:05:08;;;;;;;31.80;21.63;;;9.20;96.30;;;;;;4975111;28;20402;-77
2021/03/24 08:07:45;;;;;;;27.63;21.40;;;9.60;96.30;;;;;;4974978;28;20461;-78
2021/03/24 08:10:17;;;;;;;27.30;22.10;;;9.70;96.30;;;;;;4975213;28;20397;-77
2021/03/24 08:12:55;;;;;;;26.30;21.53;;;10.00;96.30;;;;;;4960438;28;20964;-78
2021/03/24 08:15:56;;;;;;;26.37;21.13;;;10.60;95.50;;;;;;4958533;28;20421;-78
2021/03/24 08:18:43;;;;;;;30.20;22.40;;;11.20;94.20;;;;;;4975169;28;21081;-78
2021/03/24 08:21:24;;;;;;;33.97;22.90;;;11.80;91.90;;;;;;4958649;28;20476;-79
2021/03/24 08:24:06;;;;;;;26.70;22.07;;;12.00;90.80;;;;;;4958882;28;20418;-79
2021/03/24 08:26:41;;;;;;;28.33;21.60;;;11.80;89.00;;;;;;4975427;28;20428;-78
2021/03/24 08:29:44;;;;;;;31.67;23.07;;;12.10;87.50;;;;;;4975340;28;20413;-79
2021/03/24 08:33:01;;;;;;;30.47;24.47;;;11.50;87.80;;;;;;4919156;28;20437;-79
2021/03/24 08:35:38;;;;;;;29.30;23.50;;;11.70;89.30;;;;;;4975845;28;20457;-79
2021/03/24 08:38:31;;;;;;;32.43;22.67;;;12.40;87.10;;;;;;4975113;28;20732;-78
2021/03/24 08:41:41;;;;;;;30.63;24.50;;;12.20;86.00;;;;;;4975023;28;20549;-78
2021/03/24 08:44:25;;;;;;;30.70;25.93;;;12.50;87.30;;;;;;4916637;29;20417;-79
2021/03/24 08:46:59;;;;;;;32.80;25.27;;;12.90;86.40;;;;;;4974933;28;20421;-79
2021/03/24 08:49:30;;;;;;;34.50;24.20;;;12.30;89.00;;;;;;4975704;28;20556;-78
2021/03/24 08:52:42;;;;;;;30.53;24.17;;;12.90;86.70;;;;;;4974979;28;20430;-79
2021/03/24 08:55:23;;;;;;;32.33;25.40;;;13.10;83.00;;;;;;4901810;28;20426;-79
2021/03/24 08:58:16;;;;;;;33.30;24.90;;;12.80;84.40;;;;;;4957232;28;20444;-78
2021/03/24 09:01:11;;;;;;;33.80;24.37;;;13.10;84.20;;;;;;4974024;28;20521;-79
2021/03/24 09:04:04;;;;;;;27.03;24.03;;;12.90;87.90;;;;;;4974307;28;20410;-79
2021/03/24 09:06:54;;;;;;;32.37;25.80;;;13.20;87.70;;;;;;4974702;28;20413;-79
2021/03/24 09:09:37;;;;;;;36.47;27.23;;;13.00;81.40;;;;;;4974859;28;20453;-78
2021/03/24 09:12:23;;;;;;;40.27;24.00;;;13.10;85.70;;;;;;4974895;28;20430;-78
2021/03/24 09:15:18;;;;;;;35.90;26.80;;;14.00;83.00;;;;;;4974682;28;20410;-79
2021/03/24 09:17:50;;;;;;;35.47;28.93;;;13.50;83.20;;;;;;4974018;28;20493;-78
2021/03/24 09:20:21;;;;;;;31.60;25.47;;;12.50;82.20;;;;;;4974314;28;20987;-78
2021/03/24 09:23:23;;;;;;;36.97;27.90;;;13.00;85.70;;;;;;4956381;28;20426;-78
2021/03/24 09:26:06;;;;;;;34.00;28.83;;;13.30;84.50;;;;;;4974499;28;20409;-78
2021/03/24 09:29:10;;;;;;;32.63;26.50;;;13.30;83.20;;;;;;4973722;28;20402;-78
2021/03/24 09:32:08;;;;;;;46.87;32.60;;;12.60;84.20;;;;;;4921253;28;20442;-78
2021/03/24 09:34:42;;;;;;;39.53;32.17;;;12.60;83.80;;;;;;4955066;29;20538;-78
2021/03/24 09:37:10;;;;;;;37.77;31.40;;;11.50;87.90;;;;;;4954270;29;20438;-78
2021/03/24 09:39:50;;;;;;;65.30;31.90;;;12.10;89.80;;;;;;4937567;29;20418;-78
2021/03/24 09:42:30;;;;;;;37.57;31.43;;;12.60;88.20;;;;;;4959234;28;20838;-78
2021/03/24 09:45:07;;;;;;;38.50;30.10;;;12.30;87.20;;;;;;4973153;28;20877;-78
2021/03/24 09:47:51;;;;;;;36.87;29.23;;;12.70;86.30;;;;;;4973099;28;20508;-78
2021/03/24 09:50:17;;;;;;;39.37;30.30;;;12.40;89.60;;;;;;4973933;28;21014;-79
2021/03/24 09:52:57;;;;;;;36.17;30.10;;;12.60;87.70;;;;;;4973451;28;20513;-78
2021/03/24 09:55:25;;;;;;;39.00;30.00;;;12.00;86.10;;;;;;4970769;28;20190;-78
2021/03/24 09:58:24;;;;;;;38.80;29.97;;;11.50;90.10;;;;;;4973642;28;20475;-78
2021/03/24 10:01:00;;;;;;;40.03;29.80;;;11.80;91.60;;;;;;4970994;28;20535;-79
2021/03/24 10:03:51;;;;;;;40.80;32.10;;;12.10;87.00;;;;;;4967240;28;20844;-79
2021/03/24 10:06:25;;;;;;;41.00;31.50;;;11.80;89.20;;;;;;4957961;28;20460;-79
2021/03/24 10:09:34;;;;;;;44.90;31.67;;;12.60;89.60;;;;;;4956912;28;20430;-80
2021/03/24 10:12:05;;;;;;;44.77;31.60;;;13.20;87.40;;;;;;4908207;28;20805;-80
2021/03/24 10:14:53;;;;;;;40.63;32.20;;;13.90;83.50;;;;;;4975882;28;20398;-79
2021/03/24 10:17:24;;;;;;;40.20;31.00;;;13.80;83.50;;;;;;4974682;28;20413;-80
2021/03/24 10:20:06;;;;;;;40.20;32.27;;;14.00;83.50;;;;;;4974702;28;20560;-79
2021/03/24 10:22:45;;;;;;;41.13;33.07;;;13.80;83.00;;;;;;4973992;28;20437;-79
2021/03/24 10:25:20;;;;;;;38.57;32.50;;;13.50;82.50;;;;;;4957710;28;20818;-79
2021/03/24 10:27:49;;;;;;;40.43;33.20;;;13.20;82.90;;;;;;4956777;28;20508;-79
2021/03/24 10:30:15;;;;;;;40.80;31.20;;;12.60;84.20;;;;;;4974534;28;20956;-79
2021/03/24 10:33:01;;;;;;;37.80;31.37;;;13.40;89.00;;;;;;4957440;28;20441;-80
2021/03/24 10:35:41;;;;;;;35.97;30.03;;;14.30;85.30;;;;;;4974699;28;20198;-81
2021/03/24 10:38:26;;;;;;;41.80;28.93;;;13.00;83.80;;;;;;4974164;28;20420;-79
2021/03/24 10:41:08;;;;;;;40.60;31.80;;;12.10;87.90;;;;;;4974356;28;20548;-80
2021/03/24 10:43:40;;;;;;;45.10;31.17;;;13.10;88.20;;;;;;4974375;28;20802;-80
2021/03/24 10:46:31;;;;;;;40.40;30.77;;;14.00;84.60;;;;;;4973523;28;20418;-78
2021/03/24 10:49:00;;;;;;;37.83;29.43;;;14.00;83.80;;;;;;4971763;28;20425;-80
2021/03/24 10:51:47;;;;;;;37.63;30.80;;;14.50;85.20;;;;;;4955824;28;20991;-80
2021/03/24 10:54:20;;;;;;;37.70;29.53;;;14.80;80.70;;;;;;4967053;28;20422;-79
2021/03/24 10:57:04;;;;;;;36.00;28.47;;;15.40;80.60;;;;;;4955082;28;20582;-79
2021/03/24 10:59:37;;;;;;;38.57;28.57;;;14.50;79.90;;;;;;4938764;28;20422;-81
2021/03/24 11:02:31;;;;;;;40.83;30.50;;;13.70;84.20;;;;;;4967368;28;21028;-79
2021/03/24 11:05:13;;;;;;;34.87;28.77;;;13.90;83.00;;;;;;4954078;28;20425;-79
2021/03/24 11:07:53;;;;;;;40.23;30.57;;;13.40;85.20;;;;;;4953500;28;20398;-79
2021/03/24 11:10:27;;;;;;;34.70;28.47;;;13.50;85.50;;;;;;4954016;28;20465;-79
2021/03/24 11:13:02;;;;;;;36.00;29.60;;;14.00;84.60;;;;;;4955694;28;20495;-82
2021/03/24 11:16:11;;;;;;;33.40;29.20;;;12.50;85.10;;;;;;4955930;28;20488;-79
2021/03/24 11:18:46;;;;;;;38.30;29.77;;;12.90;90.90;;;;;;4892901;29;20432;-78
2021/03/24 11:21:20;;;;;;;38.97;28.13;;;12.80;83.40;;;;;;4900138;29;20577;-78
2021/03/24 11:23:51;;;;;;;41.83;27.90;;;13.20;84.30;;;;;;4945249;28;20799;-78
2021/03/24 11:26:38;;;;;;;36.23;29.67;;;13.80;83.90;;;;;;4972806;28;20824;-80
2021/03/24 11:29:07;;;;;;;37.47;29.00;;;13.80;84.00;;;;;;4970606;28;20413;-79
2021/03/24 11:31:57;;;;;;;33.73;28.70;;;13.90;83.10;;;;;;4971743;28;20449;-78
2021/03/24 11:34:50;;;;;;;37.63;27.53;;;14.00;83.50;;;;;;4972844;28;20410;-79
2021/03/24 11:37:18;;;;;;;37.67;29.83;;;13.50;80.40;;;;;;4971634;28;20413;-78
2021/03/24 11:39:49;;;;;;;36.40;28.70;;;13.50;88.70;;;;;;4988039;28;20504;-78
2021/03/24 11:42:19;;;;;;;41.03;28.87;;;13.50;88.30;;;;;;4984363;28;20450;-79
2021/03/24 11:44:48;;;;;;;36.80;29.23;;;13.60;79.50;;;;;;4969501;28;20475;-77
2021/03/24 11:47:59;;;;;;;36.97;28.40;;;13.30;82.30;;;;;;4975388;28;20413;-80
2021/03/24 11:51:05;;;;;;;33.50;27.30;;;13.60;81.80;;;;;;4956832;28;20733;-79
2021/03/24 11:53:47;;;;;;;45.47;29.90;;;13.60;82.70;;;;;;4971588;28;20409;-78
2021/03/24 11:56:55;;;;;;;37.13;28.13;;;13.20;82.70;;;;;;4973252;28;20405;-80
2021/03/24 11:59:39;;;;;;;37.63;28.57;;;13.60;84.00;;;;;;4940115;28;20436;-78
2021/03/24 12:02:10;;;;;;;34.50;27.20;;;14.10;83.90;;;;;;4975776;28;20889;-78
2021/03/24 12:04:53;;;;;;;36.97;27.30;;;14.30;81.80;;;;;;4976053;28;20410;-78
2021/03/24 12:07:49;;;;;;;32.70;27.03;;;13.70;80.90;;;;;;4952751;29;20942;-77
2021/03/24 12:10:50;;;;;;;35.00;26.30;;;13.90;78.80;;;;;;4940305;29;20922;-78
2021/03/24 12:13:27;;;;;;;33.03;28.17;;;13.40;82.30;;;;;;4943582;29;20429;-78
2021/03/24 12:16:00;;;;;;;36.47;28.13;;;13.90;82.20;;;;;;4956191;29;20933;-80
2021/03/24 12:18:25;;;;;;;37.00;27.40;;;13.90;84.30;;;;;;4955112;28;20429;-78
2021/03/24 12:20:59;;;;;;;32.83;26.80;;;13.90;78.20;;;;;;4986787;28;20475;-79
2021/03/24 12:23:29;;;;;;;34.77;27.97;;;13.70;81.30;;;;;;4977613;28;20181;-77
2021/03/24 12:25:58;;;;;;;33.93;26.43;;;13.50;82.90;;;;;;4975597;28;20507;-79
2021/03/24 12:28:39;;;;;;;36.63;28.10;;;13.70;82.80;;;;;;4974783;28;20425;-79
2021/03/24 12:31:08;;;;;;;31.47;25.87;;;13.70;83.50;;;;;;4975405;28;20488;-77
2021/03/24 12:33:37;;;;;;;35.10;26.87;;;13.90;81.20;;;;;;4964753;28;20442;-79
2021/03/24 12:36:07;;;;;;;36.60;26.60;;;13.90;81.20;;;;;;4974396;28;20422;-79
2021/03/24 12:38:47;;;;;;;30.70;26.50;;;13.80;80.60;;;;;;4974833;28;20405;-78
2021/03/24 12:41:14;;;;;;;35.73;26.90;;;13.60;83.30;;;;;;4956734;28;20546;-79
2021/03/24 12:43:42;;;;;;;30.00;26.70;;;13.90;79.80;;;;;;4957841;28;20414;-79
2021/03/24 12:46:17;;;;;;;33.53;24.50;;;13.60;77.90;;;;;;4960078;28;20821;-80
2021/03/24 12:48:52;;;;;;;36.43;26.30;;;14.00;78.70;;;;;;4952505;28;20511;-78
2021/03/24 12:51:24;;;;;;;38.23;25.93;;;14.10;78.50;;;;;;4975001;28;20429;-79
2021/03/24 12:53:55;;;;;;;33.80;26.57;;;14.10;80.00;;;;;;4956887;28;20450;-81
2021/03/24 12:56:42;;;;;;;31.80;26.93;;;14.20;79.90;;;;;;4955729;29;20413;-78
2021/03/24 12:59:34;;;;;;;36.73;25.43;;;14.30;78.90;;;;;;4955828;28;20448;-80
2021/03/24 13:02:24;;;;;;;35.60;27.97;;;14.30;78.70;;;;;;4980986;28;20465;-78
2021/03/24 13:04:56;;;;;;;31.73;26.30;;;14.70;79.40;;;;;;4974547;28;20421;-78
2021/03/24 13:07:51;;;;;;;32.10;25.73;;;14.30;79.80;;;;;;4974211;28;20406;-78
2021/03/24 13:10:35;;;;;;;36.47;26.90;;;14.50;79.40;;;;;;4958615;28;20938;-78
2021/03/24 13:13:19;;;;;;;33.37;25.17;;;14.20;78.90;;;;;;4971685;28;20842;-78
2021/03/24 13:15:49;;;;;;;35.33;26.40;;;14.00;82.00;;;;;;4974455;28;20468;-80
2021/03/24 13:18:40;;;;;;;37.63;27.23;;;14.00;82.10;;;;;;4957344;28;20933;-79
2021/03/24 13:21:38;;;;;;;31.27;27.03;;;14.30;79.60;;;;;;4975106;28;20461;-77
2021/03/24 13:24:26;;;;;;;34.00;27.63;;;13.50;80.90;;;;;;4925092;28;20422;-77
2021/03/24 13:26:59;;;;;;;34.63;26.13;;;14.00;78.20;;;;;;4974115;28;20759;-78
2021/03/24 13:29:34;;;;;;;36.00;27.00;;;14.20;76.30;;;;;;4974475;28;20405;-79
2021/03/24 13:32:18;;;;;;;32.37;25.33;;;14.30;76.60;;;;;;4974275;28;20440;-79
2021/03/24 13:35:07;;;;;;;35.23;27.10;;;15.00;79.90;;;;;;4974475;28;20420;-79
2021/03/24 13:37:33;;;;;;;36.83;27.70;;;15.10;78.10;;;;;;4964539;28;20497;-78
2021/03/24 13:40:30;;;;;;;32.90;26.80;;;14.70;77.40;;;;;;4974114;28;20409;-79
2021/03/24 13:43:03;;;;;;;36.23;25.10;;;14.40;79.90;;;;;;4972143;28;20476;-79
2021/03/24 13:45:37;;;;;;;32.10;26.93;;;14.50;81.00;;;;;;4974015;28;20425;-79
2021/03/24 13:48:16;;;;;;;33.47;27.43;;;14.50;81.00;;;;;;4970252;28;20417;-80
2021/03/24 13:51:13;;;;;;;28.93;25.70;;;14.70;76.90;;;;;;4972899;28;20448;-79
2021/03/24 13:53:47;;;;;;;31.70;26.07;;;14.60;75.50;;;;;;4967756;28;20784;-78
2021/03/24 13:56:37;;;;;;;33.57;26.10;;;14.40;77.90;;;;;;4954640;28;20410;-80
2021/03/24 13:59:18;;;;;;;29.43;24.87;;;14.20;77.60;;;;;;4937661;29;20818;-79
2021/03/24 14:02:09;;;;;;;31.67;24.63;;;14.20;75.90;;;;;;4957647;28;20537;-79
2021/03/24 14:04:47;;;;;;;32.67;23.60;;;14.30;76.90;;;;;;4945381;28;20492;-79
2021/03/24 14:07:31;;;;;;;32.50;26.87;;;14.60;75.90;;;;;;4980783;28;20722;-79
2021/03/24 14:10:19;;;;;;;31.50;24.90;;;14.70;75.80;;;;;;4993881;28;20408;-80
2021/03/24 14:13:12;;;;;;;27.77;23.57;;;15.00;76.10;;;;;;4977028;28;20421;-79
2021/03/24 14:16:00;;;;;;;31.13;23.47;;;14.70;72.80;;;;;;4973738;28;20402;-79
2021/03/24 14:18:50;;;;;;;32.33;25.03;;;14.40;77.70;;;;;;4973476;28;20424;-80
2021/03/24 14:21:31;;;;;;;34.60;25.50;;;14.00;76.20;;;;;;4973864;28;20469;-80
2021/03/24 14:24:28;;;;;;;31.70;23.37;;;14.20;78.00;;;;;;4974225;28;20422;-78
2021/03/24 14:27:01;;;;;;;28.93;23.10;;;14.20;75.30;;;;;;4974055;28;20506;-84
2021/03/24 14:29:40;;;;;;;27.27;22.93;;;14.00;76.80;;;;;;4988891;28;20468;-80
2021/03/24 14:32:12;;;;;;;30.87;23.70;;;14.10;76.30;;;;;;4973393;28;20432;-79
2021/03/24 14:35:02;;;;;;;26.03;22.90;;;14.00;76.80;;;;;;4973339;28;20466;-80
2021/03/24 14:37:34;;;;;;;30.77;22.87;;;14.30;75.60;;;;;;4972879;28;20807;-79
2021/03/24 14:40:06;;;;;;;29.17;23.33;;;14.40;75.20;;;;;;4973121;28;20428;-81
2021/03/24 14:42:58;;;;;;;27.20;20.60;;;14.30;73.20;;;;;;4973322;28;21002;-81
2021/03/24 14:45:35;;;;;;;47.90;24.00;;;14.20;76.00;;;;;;4973270;28;20456;-81
2021/03/24 14:48:27;;;;;;;25.00;20.87;;;14.00;76.20;;;;;;4972808;28;20890;-80
2021/03/24 14:51:01;;;;;;;30.33;22.07;;;14.30;75.20;;;;;;4954460;28;20522;-79
2021/03/24 14:53:45;;;;;;;24.30;19.87;;;14.50;74.90;;;;;;4937335;29;20418;-80
2021/03/24 14:56:23;;;;;;;26.07;21.73;;;14.50;70.80;;;;;;4973219;28;20426;-81
2021/03/24 14:59:00;;;;;;;29.97;21.30;;;14.70;75.60;;;;;;4973578;28;20416;-81
2021/03/24 15:01:26;;;;;;;28.97;20.60;;;14.60;75.70;;;;;;4966671;28;20563;-81
2021/03/24 15:03:54;;;;;;;26.73;21.30;;;14.30;74.40;;;;;;4973841;28;20426;-81
2021/03/24 15:06:48;;;;;;;28.90;21.30;;;14.40;74.90;;;;;;4972878;28;20426;-81
2021/03/24 15:09:35;;;;;;;29.77;23.10;;;14.10;75.20;;;;;;4956139;28;20432;-81
2021/03/24 15:12:29;;;;;;;27.90;21.60;;;14.40;74.80;;;;;;4963673;28;20800;-81
2021/03/24 15:14:56;;;;;;;31.80;21.20;;;14.30;73.10;;;;;;4978075;28;20421;-82
2021/03/24 15:17:38;;;;;;;26.50;20.50;;;14.10;74.60;;;;;;4980457;28;20403;-80
2021/03/24 15:20:09;;;;;;;24.93;19.40;;;14.40;75.70;;;;;;4979365;28;20404;-81
2021/03/24 15:22:51;;;;;;;29.70;20.07;;;14.30;76.10;;;;;;4972908;28;20438;-80
2021/03/24 15:25:24;;;;;;;24.00;19.40;;;14.40;76.30;;;;;;4968741;28;20492;-81
2021/03/24 15:27:57;;;;;;;30.40;20.43;;;13.90;74.00;;;;;;4954383;29;20418;-82
2021/03/24 15:31:00;;;;;;;24.80;19.47;;;13.70;76.60;;;;;;4958421;29;20406;-81
2021/03/24 15:33:38;;;;;;;21.57;19.27;;;13.70;75.80;;;;;;4940566;29;20425;-81
2021/03/24 15:36:12;;;;;;;29.40;18.90;;;13.70;76.50;;;;;;4947648;28;20414;-81
2021/03/24 15:38:47;;;;;;;28.90;20.53;;;13.80;75.60;;;;;;4977376;28;20412;-80
2021/03/24 15:41:34;;;;;;;27.83;21.73;;;13.90;76.20;;;;;;4976630;28;20465;-81
2021/03/24 15:44:14;;;;;;;28.50;19.90;;;13.80;74.80;;;;;;4959213;28;20409;-81
2021/03/24 15:47:01;;;;;;;28.50;20.50;;;13.50;76.20;;;;;;4984834;28;20413;-80
2021/03/24 15:49:38;;;;;;;22.93;19.13;;;13.30;80.30;;;;;;4976840;28;20417;-80
2021/03/24 15:52:19;;;;;;;26.20;19.57;;;13.20;80.30;;;;;;4977619;28;20484;-80
2021/03/24 15:55:12;;;;;;;22.00;18.10;;;13.10;78.50;;;;;;4977978;28;20488;-80
2021/03/24 15:57:52;;;;;;;25.97;19.00;;;13.20;80.10;;;;;;4978609;28;20398;-81
2021/03/24 16:00:24;;;;;;;24.40;19.10;;;12.90;78.70;;;;;;4978088;28;20458;-81
2021/03/24 16:03:15;;;;;;;27.70;18.77;;;13.10;79.60;;;;;;4979851;28;20424;-81
2021/03/24 16:06:18;;;;;;;29.30;19.30;;;13.20;79.60;;;;;;4961819;28;20425;-80
2021/03/24 16:09:21;;;;;;;24.47;18.53;;;13.10;80.20;;;;;;4943868;29;20469;-80
2021/03/24 16:11:57;;;;;;;23.87;18.03;;;12.70;78.70;;;;;;4958664;28;20434;-80
2021/03/24 16:14:35;;;;;;;24.50;18.27;;;12.60;81.10;;;;;;4959554;29;20928;-80
2021/03/24 16:17:16;;;;;;;27.17;19.13;;;12.40;80.80;;;;;;4945098;28;20777;-80
2021/03/24 16:19:57;;;;;;;28.00;18.97;;;12.40;81.90;;;;;;4977646;28;20440;-80
2021/03/24 16:22:48;;;;;;;29.57;19.10;;;12.30;82.10;;;;;;4961129;28;20822;-81
2021/03/24 16:25:24;;;;;;;28.00;18.30;;;12.20;82.90;;;;;;4960478;28;20993;-80
2021/03/24 16:28:24;;;;;;;25.20;17.80;;;11.90;82.40;;;;;;4977302;28;20770;-79
2021/03/24 16:31:12;;;;;;;23.57;17.37;;;11.70;83.30;;;;;;4977822;28;20437;-80
2021/03/24 16:33:44;;;;;;;26.20;17.93;;;11.60;83.70;;;;;;4943219;28;20425;-79
2021/03/24 16:36:37;;;;;;;24.83;17.80;;;11.50;84.80;;;;;;4978109;28;20481;-80
2021/03/24 16:39:21;;;;;;;23.43;16.70;;;11.20;86.40;;;;;;4957533;28;20414;-79
2021/03/24 16:42:17;;;;;;;20.97;15.60;;;10.80;87.60;;;;;;4977034;28;20457;-79
2021/03/24 16:45:05;;;;;;;22.93;16.27;;;10.70;87.50;;;;;;4977517;28;20433;-80
2021/03/24 16:48:03;;;;;;;22.50;16.77;;;10.40;88.10;;;;;;4966097;28;20437;-78
2021/03/24 16:50:47;;;;;;;36.87;15.97;;;10.20;88.50;;;;;;4978261;28;20397;-79
2021/03/24 16:53:37;;;;;;;22.67;16.27;;;10.10;88.60;;;;;;4977985;28;20429;-79
2021/03/24 16:56:36;;;;;;;19.30;14.83;;;9.80;90.50;;;;;;4977842;28;20406;-79
2021/03/24 16:59:28;;;;;;;24.33;15.20;;;9.50;91.30;;;;;;4977133;28;20402;-78
2021/03/24 17:02:49;;;;;;;17.43;14.13;;;9.30;92.20;;;;;;4960269;28;20497;-79
2021/03/24 17:05:25;;;;;;;18.10;13.83;;;9.00;93.20;;;;;;4918352;29;20959;-79
2021/03/24 17:08:03;;;;;;;20.80;14.40;;;8.80;94.30;;;;;;4976297;28;20417;-81
2021/03/24 17:10:48;;;;;;;31.63;14.60;;;8.40;95.70;;;;;;4979859;28;20416;-81
2021/03/24 17:13:38;;;;;;;22.73;15.17;;;8.40;95.80;;;;;;4977903;28;20418;-80
2021/03/24 17:16:40;;;;;;;21.83;14.67;;;8.20;96.30;;;;;;4975653;28;20428;-80
2021/03/24 17:19:24;;;;;;;31.03;21.20;;;8.00;96.30;;;;;;4990684;28;20409;-79
2021/03/24 17:21:57;;;;;;;27.40;19.43;;;7.90;96.30;;;;;;4978334;28;20981;-79
2021/03/24 17:25:01;;;;;;;25.60;18.23;;;7.70;96.30;;;;;;4978084;28;20406;-80
2021/03/24 17:27:23;;;;;;;28.70;17.70;;;7.50;96.30;;;;;;4972167;28;20414;-81
2021/03/24 17:30:20;;;;;;;35.70;19.90;;;7.20;96.30;;;;;;4958317;28;20561;-80
2021/03/24 17:32:53;;;;;;;30.80;18.53;;;7.10;96.30;;;;;;4959552;28;20437;-80
2021/03/24 17:35:24;;;;;;;44.73;26.77;;;7.10;96.30;;;;;;4974741;28;20413;-80
2021/03/24 17:38:03;;;;;;;72.60;51.80;;;6.90;96.30;;;;;;4950318;28;21089;-81
2021/03/24 17:40:50;;;;;;;39.37;27.43;;;6.80;96.30;;;;;;4959702;28;20454;-79
2021/03/24 17:43:33;;;;;;;29.20;19.13;;;6.80;96.30;;;;;;4972945;28;20501;-80
2021/03/24 17:46:03;;;;;;;26.13;17.63;;;6.70;96.30;;;;;;4971004;28;20827;-81